createdAt,value
2019-05-18T00:01:38.958Z,91.70
2019-05-18T00:04:07.492Z,91.90
2019-05-18T00:06:36.018Z,92.30
2019-05-18T00:09:06.564Z,92.20
2019-05-18T00:11:35.211Z,92.30
2019-05-18T00:14:04.073Z,92.00
2019-05-18T00:16:32.805Z,92.10
2019-05-18T00:19:01.509Z,91.80
2019-05-18T00:21:30.103Z,92.00
2019-05-18T00:23:58.678Z,92.10
2019-05-18T00:26:27.360Z,92.20
2019-05-18T00:28:55.946Z,92.90
2019-05-18T00:31:24.651Z,92.50
2019-05-18T00:33:53.386Z,92.20
2019-05-18T00:36:21.996Z,92.10
2019-05-18T00:38:50.616Z,92.60
2019-05-18T00:41:19.295Z,92.90
2019-05-18T00:43:47.995Z,92.80
2019-05-18T00:46:16.635Z,93.30
2019-05-18T00:48:45.210Z,93.10
2019-05-18T00:51:13.888Z,93.00
2019-05-18T00:53:42.541Z,92.90
2019-05-18T00:56:11.361Z,93.00
2019-05-18T00:58:40.001Z,92.60
2019-05-18T01:01:09.058Z,92.50
2019-05-18T01:03:37.617Z,92.80
2019-05-18T01:06:06.299Z,93.40
2019-05-18T01:08:34.858Z,93.00
2019-05-18T01:11:03.487Z,92.90
2019-05-18T01:13:32.157Z,93.20
2019-05-18T01:16:00.940Z,93.10
2019-05-18T01:18:29.650Z,93.10
2019-05-18T01:20:59.164Z,93.20
2019-05-18T01:23:27.780Z,93.40
2019-05-18T01:25:56.399Z,93.30
2019-05-18T01:28:25.121Z,93.50
2019-05-18T01:30:53.693Z,93.70
2019-05-18T01:33:22.283Z,93.70
2019-05-18T01:35:50.883Z,93.50
2019-05-18T01:38:19.549Z,93.40
2019-05-18T01:40:48.263Z,93.40
2019-05-18T01:43:16.870Z,93.60
2019-05-18T01:45:45.603Z,93.70
2019-05-18T01:48:14.751Z,93.90
2019-05-18T01:50:43.523Z,93.80
2019-05-18T01:53:12.205Z,93.60
2019-05-18T01:55:40.816Z,93.60
2019-05-18T01:58:09.475Z,93.80
2019-05-18T02:00:38.141Z,93.90
2019-05-18T02:03:06.888Z,93.90
2019-05-18T02:05:35.473Z,93.80
2019-05-18T02:08:04.130Z,93.90
2019-05-18T02:10:32.752Z,93.80
2019-05-18T02:13:01.391Z,93.80
2019-05-18T02:15:30.204Z,93.70
2019-05-18T02:17:58.859Z,93.80
2019-05-18T02:20:27.417Z,93.80
2019-05-18T02:22:56.114Z,94.40
2019-05-18T02:25:24.899Z,94.00
2019-05-18T02:27:53.622Z,94.40
2019-05-18T02:30:22.397Z,94.20
2019-05-18T02:32:51.040Z,94.40
2019-05-18T02:35:19.656Z,94.20
2019-05-18T02:37:48.309Z,94.20
2019-05-18T02:40:17.111Z,94.90
2019-05-18T02:42:45.693Z,94.50
2019-05-18T02:45:14.471Z,94.50
2019-05-18T02:47:43.044Z,94.70
2019-05-18T02:50:12.081Z,94.90
2019-05-18T02:52:40.743Z,94.80
2019-05-18T02:55:09.523Z,94.90
2019-05-18T02:57:38.160Z,94.50
2019-05-18T03:00:10.050Z,94.40
2019-05-18T03:02:38.670Z,94.30
2019-05-18T03:05:08.491Z,94.70
2019-05-18T03:07:37.245Z,94.50
2019-05-18T03:10:07.783Z,94.30
2019-05-18T03:12:36.547Z,94.30
2019-05-18T03:15:06.601Z,94.20
2019-05-18T03:17:35.664Z,94.40
2019-05-18T03:20:06.687Z,94.50
2019-05-18T03:22:35.260Z,94.70
2019-05-18T03:25:06.200Z,94.50
2019-05-18T03:27:34.887Z,94.80
2019-05-18T03:30:06.015Z,94.80
2019-05-18T03:32:34.842Z,94.80
2019-05-18T03:35:03.915Z,94.80
2019-05-18T03:37:33.067Z,94.80
2019-05-18T03:40:02.534Z,94.90
2019-05-18T03:42:31.829Z,94.80
2019-05-18T03:45:00.968Z,94.60
2019-05-18T03:47:30.052Z,94.60
2019-05-18T03:49:59.171Z,94.70
2019-05-18T03:52:28.198Z,94.60
2019-05-18T03:54:57.291Z,94.90
2019-05-18T03:57:26.431Z,95.10
2019-05-18T03:59:55.600Z,95.00
2019-05-18T04:02:24.831Z,95.30
2019-05-18T04:04:53.843Z,95.20
2019-05-18T04:07:23.327Z,95.00
2019-05-18T04:09:52.401Z,95.00
2019-05-18T04:12:21.692Z,94.90
2019-05-18T04:14:50.958Z,95.20
2019-05-18T04:17:20.105Z,95.00
2019-05-18T04:19:49.459Z,95.10
2019-05-18T04:22:18.733Z,95.20
2019-05-18T04:24:47.769Z,95.00
2019-05-18T04:27:16.895Z,95.00
2019-05-18T04:29:45.944Z,95.60
2019-05-18T04:32:15.269Z,95.20
2019-05-18T04:34:44.497Z,95.00
2019-05-18T04:37:13.640Z,95.20
2019-05-18T04:39:42.878Z,95.20
2019-05-18T04:42:12.114Z,95.30
2019-05-18T04:44:41.228Z,95.10
2019-05-18T04:47:10.391Z,94.70
2019-05-18T04:49:39.823Z,94.40
2019-05-18T04:52:09.124Z,94.30
2019-05-18T04:54:38.440Z,94.80
2019-05-18T04:57:07.742Z,94.80
2019-05-18T04:59:37.218Z,94.70
2019-05-18T05:02:06.412Z,94.70
2019-05-18T05:04:35.864Z,94.60
2019-05-18T05:07:05.160Z,94.70
2019-05-18T05:09:34.400Z,94.70
2019-05-18T05:12:03.735Z,94.30
2019-05-18T05:14:33.136Z,94.70
2019-05-18T05:17:02.179Z,94.10
2019-05-18T05:19:31.668Z,94.40
2019-05-18T05:22:01.063Z,94.70
2019-05-18T05:24:30.346Z,94.10
2019-05-18T05:26:59.748Z,93.60
2019-05-18T05:29:29.065Z,93.40
2019-05-18T05:31:58.250Z,93.90
2019-05-18T05:34:27.675Z,94.10
2019-05-18T05:36:57.089Z,94.10
2019-05-18T05:39:26.263Z,94.30
2019-05-18T05:41:55.669Z,94.30
2019-05-18T05:44:25.078Z,93.90
2019-05-18T05:46:54.262Z,94.20
2019-05-18T05:49:23.713Z,93.80
2019-05-18T05:51:52.961Z,93.40
2019-05-18T05:54:22.313Z,93.30
2019-05-18T05:56:51.670Z,93.00
2019-05-18T05:59:20.975Z,92.60
2019-05-18T06:01:50.279Z,92.60
2019-05-18T06:04:19.626Z,93.00
2019-05-18T06:06:48.880Z,92.50
2019-05-18T06:09:18.048Z,92.70
2019-05-18T06:11:47.519Z,93.10
2019-05-18T06:14:16.914Z,92.80
2019-05-18T06:16:46.039Z,92.30
2019-05-18T06:19:15.511Z,92.00
2019-05-18T06:21:44.699Z,91.70
2019-05-18T06:24:14.071Z,91.80
2019-05-18T06:26:43.416Z,92.00
2019-05-18T06:29:12.604Z,91.30
2019-05-18T06:31:41.941Z,91.40
2019-05-18T06:34:11.183Z,91.50
2019-05-18T06:36:40.570Z,92.00
2019-05-18T06:39:09.831Z,92.50
2019-05-18T06:41:39.978Z,92.60
2019-05-18T06:44:09.166Z,91.80
2019-05-18T06:46:38.383Z,91.60
2019-05-18T06:49:07.691Z,91.60
2019-05-18T06:51:36.842Z,91.20
2019-05-18T06:54:06.119Z,91.00
2019-05-18T06:56:35.480Z,90.20
2019-05-18T06:59:04.742Z,89.60
2019-05-18T07:01:34.007Z,88.40
2019-05-18T07:04:03.531Z,88.40
2019-05-18T07:06:32.743Z,85.40
2019-05-18T07:09:02.009Z,86.60
2019-05-18T07:11:31.499Z,84.60
2019-05-18T07:14:00.590Z,82.00
2019-05-18T07:16:30.126Z,84.40
2019-05-18T07:18:59.242Z,83.20
2019-05-18T07:21:28.662Z,84.10
2019-05-18T07:23:58.028Z,81.00
2019-05-18T07:26:27.542Z,80.00
2019-05-18T07:28:57.022Z,79.50
2019-05-18T07:31:26.365Z,80.40
2019-05-18T07:33:55.773Z,80.90
2019-05-18T07:36:25.055Z,81.40
2019-05-18T07:38:54.222Z,81.70
2019-05-18T07:41:23.689Z,82.50
2019-05-18T07:43:52.861Z,81.30
2019-05-18T07:46:22.361Z,81.60
2019-05-18T07:48:51.711Z,78.10
2019-05-18T07:51:21.012Z,79.50
2019-05-18T07:53:50.442Z,79.10
2019-05-18T07:56:19.744Z,77.20
2019-05-18T07:58:49.071Z,77.40
2019-05-18T08:01:18.339Z,78.30
2019-05-18T08:03:47.981Z,77.60
2019-05-18T08:06:17.179Z,78.00
2019-05-18T08:08:46.328Z,77.60
2019-05-18T08:11:15.753Z,76.30
2019-05-18T08:13:45.580Z,76.70
2019-05-18T08:16:14.747Z,78.20
2019-05-18T08:18:44.054Z,76.50
2019-05-18T08:21:13.513Z,75.80
2019-05-18T08:23:42.589Z,74.30
2019-05-18T08:26:11.917Z,73.10
2019-05-18T08:28:41.317Z,73.20
2019-05-18T08:31:10.638Z,72.50
2019-05-18T08:33:40.035Z,71.10
2019-05-18T08:36:09.166Z,67.40
2019-05-18T08:38:38.555Z,65.50
2019-05-18T08:41:07.809Z,64.70
2019-05-18T08:43:37.019Z,66.40
2019-05-18T08:46:06.447Z,65.40
2019-05-18T08:48:35.854Z,63.50
2019-05-18T08:51:05.111Z,60.80
2019-05-18T08:53:34.465Z,61.90
2019-05-18T08:56:03.741Z,63.70
2019-05-18T08:58:33.122Z,64.60
2019-05-18T09:01:02.556Z,65.80
2019-05-18T09:03:31.784Z,66.60
2019-05-18T09:06:00.986Z,65.70
2019-05-18T09:08:30.143Z,65.70
2019-05-18T09:10:59.232Z,65.70
2019-05-18T09:13:28.518Z,66.00
2019-05-18T09:15:57.898Z,66.30
2019-05-18T09:18:27.117Z,67.30
2019-05-18T09:20:56.506Z,65.80
2019-05-18T09:23:25.759Z,65.20
2019-05-18T09:25:55.150Z,64.70
2019-05-18T09:28:24.269Z,63.10
2019-05-18T09:30:53.703Z,65.10
2019-05-18T09:33:23.001Z,62.30
2019-05-18T09:35:52.067Z,61.20
2019-05-18T09:38:22.023Z,58.70
2019-05-18T09:40:51.563Z,56.80
2019-05-18T09:43:20.736Z,54.60
2019-05-18T09:45:50.072Z,54.20
2019-05-18T09:48:19.498Z,52.90
2019-05-18T09:50:48.785Z,54.60
2019-05-18T09:53:18.002Z,54.40
2019-05-18T09:55:47.366Z,53.50
2019-05-18T09:58:16.630Z,53.20
2019-05-18T10:00:46.048Z,53.70
2019-05-18T10:03:15.555Z,53.40
2019-05-18T10:05:44.795Z,53.70
2019-05-18T10:08:14.049Z,54.20
2019-05-18T10:10:43.431Z,52.40
2019-05-18T10:13:12.760Z,50.80
2019-05-18T10:15:42.189Z,49.70
2019-05-18T10:18:11.455Z,51.20
2019-05-18T10:20:40.646Z,50.80
2019-05-18T10:23:13.692Z,51.00
2019-05-18T10:25:40.916Z,50.20
2019-05-18T10:28:10.054Z,50.00
2019-05-18T10:30:39.271Z,49.80
2019-05-18T10:33:08.416Z,50.50
2019-05-18T10:35:37.615Z,49.00
2019-05-18T10:38:06.697Z,49.50
2019-05-18T10:40:35.952Z,52.90
2019-05-18T10:43:05.096Z,52.90
2019-05-18T10:45:34.596Z,53.70
2019-05-18T10:48:04.035Z,52.50
2019-05-18T10:50:33.378Z,52.10
2019-05-18T10:53:02.441Z,50.80
2019-05-18T10:55:31.895Z,51.00
2019-05-18T10:58:01.081Z,51.50
2019-05-18T11:00:30.442Z,50.90
2019-05-18T11:02:59.691Z,52.70
2019-05-18T11:05:29.132Z,53.30
2019-05-18T11:07:58.435Z,53.20
2019-05-18T11:10:27.790Z,52.70
2019-05-18T11:12:56.951Z,53.30
2019-05-18T11:15:26.411Z,53.50
2019-05-18T11:17:55.816Z,53.20
2019-05-18T11:20:25.128Z,53.00
2019-05-18T11:22:54.432Z,53.70
2019-05-18T11:25:23.741Z,53.50
2019-05-18T11:27:52.972Z,54.00
2019-05-18T11:30:22.735Z,54.60
2019-05-18T11:32:51.827Z,54.10
2019-05-18T11:35:21.012Z,53.50
2019-05-18T11:37:50.229Z,52.40
2019-05-18T11:40:19.640Z,53.00
2019-05-18T11:42:48.839Z,53.10
2019-05-18T11:45:19.018Z,53.00
2019-05-18T11:47:48.215Z,52.40
2019-05-18T11:50:17.980Z,52.30
2019-05-18T11:52:47.318Z,52.80
2019-05-18T11:55:16.783Z,50.20
2019-05-18T11:57:46.001Z,51.30
2019-05-18T12:00:16.209Z,48.90
2019-05-18T12:02:45.489Z,47.80
2019-05-18T12:05:15.984Z,47.10
2019-05-18T12:07:45.020Z,45.90
2019-05-18T12:10:14.539Z,46.00
2019-05-18T12:12:43.684Z,47.30
2019-05-18T12:15:14.662Z,45.40
2019-05-18T12:17:42.956Z,45.30
2019-05-18T12:20:13.467Z,43.90
2019-05-18T12:22:42.738Z,45.10
2019-05-18T12:25:12.198Z,47.20
2019-05-18T12:27:41.516Z,46.90
2019-05-18T12:30:11.935Z,47.90
2019-05-18T12:32:41.312Z,47.50
2019-05-18T12:35:10.744Z,47.20
2019-05-18T12:37:40.032Z,47.50
2019-05-18T12:40:10.054Z,47.70
2019-05-18T12:42:39.155Z,47.30
2019-05-18T12:45:10.307Z,46.90
2019-05-18T12:47:38.552Z,46.70
2019-05-18T12:50:08.879Z,48.20
2019-05-18T12:52:38.449Z,48.20
2019-05-18T12:55:08.047Z,47.80
2019-05-18T12:57:37.538Z,48.00
2019-05-18T13:00:12.142Z,48.20
2019-05-18T13:02:41.485Z,49.60
2019-05-18T13:05:10.861Z,48.90
2019-05-18T13:07:39.942Z,47.90
2019-05-18T13:10:11.409Z,49.50
2019-05-18T13:12:40.686Z,48.40
2019-05-18T13:15:12.100Z,49.40
2019-05-18T13:17:41.393Z,48.70
2019-05-18T13:20:12.107Z,49.00
2019-05-18T13:22:41.465Z,48.30
2019-05-18T13:25:11.465Z,48.60
2019-05-18T13:27:40.671Z,48.20
2019-05-18T13:30:12.186Z,48.20
2019-05-18T13:32:41.471Z,48.70
2019-05-18T13:35:11.447Z,49.70
2019-05-18T13:37:40.618Z,49.10
2019-05-18T13:40:10.186Z,48.40
2019-05-18T13:42:39.442Z,47.30
2019-05-18T13:45:10.165Z,48.20
2019-05-18T13:47:40.094Z,48.10
2019-05-18T13:50:09.581Z,45.60
2019-05-18T13:52:38.831Z,47.00
2019-05-18T13:55:08.483Z,45.90
2019-05-18T13:57:37.760Z,46.60
2019-05-18T14:00:08.729Z,46.00
2019-05-18T14:02:38.142Z,46.60
2019-05-18T14:05:09.059Z,45.80
2019-05-18T14:07:38.320Z,45.80
2019-05-18T14:10:12.655Z,45.30
2019-05-18T14:12:41.571Z,44.50
2019-05-18T14:15:12.184Z,45.60
2019-05-18T14:17:41.296Z,45.40
2019-05-18T14:20:10.907Z,46.10
2019-05-18T14:22:40.067Z,45.90
2019-05-18T14:25:19.501Z,45.20
2019-05-18T14:27:41.319Z,44.60
2019-05-18T14:30:10.858Z,45.00
2019-05-18T14:32:40.068Z,47.10
2019-05-18T14:35:09.619Z,46.30
2019-05-18T14:37:38.715Z,45.80
2019-05-18T14:40:08.695Z,46.50
2019-05-18T14:42:37.926Z,45.30
2019-05-18T14:45:09.053Z,47.10
2019-05-18T14:47:37.310Z,46.80
2019-05-18T14:50:07.714Z,48.00
2019-05-18T14:52:37.215Z,48.30
2019-05-18T14:55:06.894Z,47.80
2019-05-18T14:57:36.050Z,48.40
2019-05-18T15:00:07.201Z,49.00
2019-05-18T15:02:36.426Z,48.30
2019-05-18T15:05:09.994Z,48.80
2019-05-18T15:07:39.514Z,47.00
2019-05-18T15:10:10.931Z,48.30
2019-05-18T15:12:40.269Z,47.60
2019-05-18T15:15:10.338Z,46.60
2019-05-18T15:17:39.404Z,46.30
2019-05-18T15:20:09.169Z,45.20
2019-05-18T15:22:38.631Z,46.00
2019-05-18T15:25:08.105Z,44.40
2019-05-18T15:27:37.303Z,45.20
2019-05-18T15:30:07.986Z,45.30
2019-05-18T15:32:37.217Z,45.70
2019-05-18T15:35:08.802Z,46.00
2019-05-18T15:37:38.928Z,45.70
2019-05-18T15:40:08.671Z,45.20
2019-05-18T15:42:37.874Z,45.60
2019-05-18T15:45:07.625Z,46.50
2019-05-18T15:47:37.197Z,46.90
2019-05-18T15:50:09.388Z,47.30
2019-05-18T15:52:38.695Z,47.00
2019-05-18T15:55:09.318Z,47.80
2019-05-18T15:57:38.587Z,46.60
2019-05-18T16:00:09.222Z,47.00
2019-05-18T16:02:38.651Z,45.70
2019-05-18T16:05:08.821Z,46.20
2019-05-18T16:07:38.095Z,46.60
2019-05-18T16:10:09.932Z,46.10
2019-05-18T16:12:39.212Z,46.30
2019-05-18T16:15:08.694Z,46.30
2019-05-18T16:17:39.893Z,47.70
2019-05-18T16:20:08.746Z,47.10
2019-05-18T16:22:37.999Z,46.70
2019-05-18T16:25:08.048Z,46.50
2019-05-18T16:27:37.202Z,46.80
2019-05-18T16:30:08.351Z,47.20
2019-05-18T16:32:37.403Z,46.70
2019-05-18T16:35:08.698Z,46.70
2019-05-18T16:37:37.705Z,46.00
2019-05-18T16:40:08.342Z,46.00
2019-05-18T16:42:37.655Z,46.30
2019-05-18T16:45:08.730Z,46.80
2019-05-18T16:47:38.077Z,46.80
2019-05-18T16:50:08.911Z,46.20
2019-05-18T16:52:38.127Z,46.30
2019-05-18T16:55:09.161Z,46.40
2019-05-18T16:57:38.741Z,46.70
2019-05-18T17:00:10.941Z,47.20
2019-05-18T17:02:40.129Z,49.80
2019-05-18T17:05:09.517Z,51.30
2019-05-18T17:07:38.665Z,52.40
2019-05-18T17:10:08.657Z,52.60
2019-05-18T17:12:37.722Z,53.40
2019-05-18T17:15:10.231Z,53.90
2019-05-18T17:17:40.038Z,53.70
2019-05-18T17:20:09.824Z,54.40
2019-05-18T17:22:39.076Z,54.30
2019-05-18T17:25:08.401Z,55.70
2019-05-18T17:27:37.701Z,55.00
2019-05-18T17:30:08.109Z,54.90
2019-05-18T17:32:37.339Z,55.30
2019-05-18T17:35:07.414Z,54.90
2019-05-18T17:37:36.728Z,55.00
2019-05-18T17:40:07.213Z,55.30
2019-05-18T17:42:36.390Z,55.60
2019-05-18T17:45:07.611Z,55.90
2019-05-18T17:47:36.081Z,55.90
2019-05-18T17:50:10.072Z,55.60
2019-05-18T17:52:39.324Z,56.70
2019-05-18T17:55:09.388Z,56.50
2019-05-18T17:57:38.752Z,56.20
2019-05-18T18:00:09.413Z,56.20
2019-05-18T18:02:38.741Z,56.80
2019-05-18T18:05:09.289Z,56.90
2019-05-18T18:07:38.661Z,57.20
2019-05-18T18:10:08.674Z,58.00
2019-05-18T18:12:37.824Z,57.80
2019-05-18T18:15:08.117Z,58.20
2019-05-18T18:17:37.291Z,58.30
2019-05-18T18:20:07.347Z,59.20
2019-05-18T18:22:36.575Z,59.60
2019-05-18T18:25:07.179Z,60.00
2019-05-18T18:27:37.235Z,60.20
2019-05-18T18:30:08.740Z,60.50
2019-05-18T18:32:37.177Z,61.70
2019-05-18T18:35:07.408Z,62.60
2019-05-18T18:37:36.876Z,63.40
2019-05-18T18:40:07.338Z,63.70
2019-05-18T18:42:36.573Z,63.90
2019-05-18T18:45:09.079Z,64.60
2019-05-18T18:47:38.574Z,64.70
2019-05-18T18:50:08.687Z,65.60
2019-05-18T18:52:37.995Z,65.90
2019-05-18T18:55:08.550Z,66.40
2019-05-18T18:57:41.693Z,66.30
2019-05-18T19:00:09.063Z,66.10
2019-05-18T19:02:38.559Z,67.90
2019-05-18T19:05:08.114Z,67.80
2019-05-18T19:07:37.290Z,69.10
2019-05-18T19:10:08.100Z,68.70
2019-05-18T19:12:37.405Z,68.40
2019-05-18T19:15:10.501Z,68.10
2019-05-18T19:17:39.800Z,67.80
2019-05-18T19:20:09.492Z,68.80
2019-05-18T19:22:38.595Z,69.80
2019-05-18T19:25:08.141Z,69.70
2019-05-18T19:27:37.291Z,69.80
2019-05-18T19:30:10.280Z,70.30
2019-05-18T19:32:39.376Z,70.40
2019-05-18T19:35:08.519Z,70.00
2019-05-18T19:37:37.587Z,70.10
2019-05-18T19:40:07.923Z,69.70
2019-05-18T19:42:36.619Z,69.50
2019-05-18T19:45:06.992Z,69.80
2019-05-18T19:47:35.678Z,69.80
2019-05-18T19:50:06.139Z,69.70
2019-05-18T19:52:34.953Z,69.50
2019-05-18T19:55:04.663Z,70.00
2019-05-18T19:57:33.376Z,69.70
2019-05-18T20:00:02.264Z,70.80
2019-05-18T20:02:30.960Z,70.60
2019-05-18T20:05:07.188Z,70.80
2019-05-18T20:07:29.852Z,71.00
2019-05-18T20:09:58.523Z,71.30
2019-05-18T20:12:27.191Z,71.40
2019-05-18T20:14:55.856Z,71.70
2019-05-18T20:17:24.536Z,71.10
2019-05-18T20:19:53.162Z,70.50
2019-05-18T20:22:21.819Z,70.30
2019-05-18T20:24:50.374Z,70.60
2019-05-18T20:27:19.016Z,71.30
2019-05-18T20:29:47.766Z,71.50
2019-05-18T20:32:16.412Z,72.30
2019-05-18T20:34:45.144Z,72.20
2019-05-18T20:37:13.806Z,72.90
2019-05-18T20:39:42.414Z,73.30
2019-05-18T20:42:11.156Z,72.90
2019-05-18T20:44:39.818Z,73.20
2019-05-18T20:47:08.446Z,72.60
2019-05-18T20:49:37.158Z,72.90
2019-05-18T20:52:05.884Z,72.30
2019-05-18T20:54:34.491Z,72.10
2019-05-18T20:57:03.116Z,72.20
2019-05-18T20:59:31.700Z,72.50
2019-05-18T21:02:00.385Z,72.70
2019-05-18T21:04:29.101Z,74.00
2019-05-18T21:06:57.744Z,73.80
2019-05-18T21:09:26.419Z,73.90
2019-05-18T21:11:55.287Z,74.50
2019-05-18T21:14:24.045Z,74.90
2019-05-18T21:16:52.778Z,74.90
2019-05-18T21:19:21.665Z,75.00
2019-05-18T21:21:50.375Z,75.60
2019-05-18T21:24:19.098Z,75.40
2019-05-18T21:26:47.634Z,75.80
2019-05-18T21:29:16.297Z,76.20
2019-05-18T21:31:44.956Z,76.40
2019-05-18T21:34:13.560Z,77.10
2019-05-18T21:36:42.289Z,77.40
2019-05-18T21:39:10.928Z,78.30
2019-05-18T21:41:39.682Z,78.60
2019-05-18T21:44:08.391Z,79.00
2019-05-18T21:46:39.083Z,79.30
2019-05-18T21:49:07.445Z,79.40
2019-05-18T21:51:36.181Z,79.50
2019-05-18T21:54:05.030Z,79.80
2019-05-18T21:56:33.745Z,79.40
2019-05-18T21:59:11.315Z,79.70
2019-05-18T22:01:32.877Z,80.20
2019-05-18T22:04:01.570Z,80.10
2019-05-18T22:06:30.287Z,79.90
2019-05-18T22:08:59.029Z,80.20
2019-05-18T22:11:27.709Z,80.50
2019-05-18T22:13:56.463Z,80.70
2019-05-18T22:16:25.181Z,80.80
2019-05-18T22:18:53.813Z,81.10
2019-05-18T22:21:22.408Z,80.90
2019-05-18T22:23:51.028Z,81.10
2019-05-18T22:26:19.633Z,81.00
2019-05-18T22:28:48.345Z,81.20
2019-05-18T22:31:19.586Z,81.10
2019-05-18T22:33:47.448Z,81.00
2019-05-18T22:36:16.064Z,81.00
2019-05-18T22:38:44.813Z,81.00
2019-05-18T22:41:13.495Z,81.30
2019-05-18T22:43:42.215Z,80.90
2019-05-18T22:46:10.930Z,80.90
2019-05-18T22:48:41.574Z,80.30
2019-05-18T22:51:09.821Z,80.50
2019-05-18T22:53:38.478Z,80.80
2019-05-18T22:56:07.143Z,81.20
2019-05-18T22:58:35.806Z,81.50
2019-05-18T23:01:04.713Z,80.90
2019-05-18T23:03:33.395Z,80.70
2019-05-18T23:06:02.085Z,81.10
2019-05-18T23:08:30.739Z,81.10
2019-05-18T23:10:59.429Z,80.90
2019-05-18T23:13:28.167Z,81.60
2019-05-18T23:15:56.883Z,82.20
2019-05-18T23:18:25.550Z,82.10
2019-05-18T23:20:54.162Z,81.70
2019-05-18T23:23:22.914Z,82.10
2019-05-18T23:25:54.558Z,82.60
2019-05-18T23:28:23.275Z,83.10
2019-05-18T23:30:51.810Z,83.40
2019-05-18T23:33:20.497Z,83.40
2019-05-18T23:35:49.171Z,83.20
2019-05-18T23:38:17.865Z,83.20
2019-05-18T23:40:46.556Z,83.10
2019-05-18T23:43:15.223Z,83.10
2019-05-18T23:45:44.045Z,83.60
2019-05-18T23:48:12.837Z,83.90
2019-05-18T23:50:41.472Z,84.10
2019-05-18T23:53:10.105Z,84.00
2019-05-18T23:55:38.753Z,84.20
2019-05-18T23:58:07.425Z,84.20
